Time,TemperatureF,DewpointF,PressureIn,WindDirection,WindDirectionDegrees,WindSpeedMPH,WindSpeedGustMPH,Humidity,HourlyPrecipIn,Conditions,Clouds,dailyrainin,SoftwareType,DateUTC
2013-12-17 00:02:00,42.4,23.6,30.11,WNW,284,2.7,3.5,47,0.00,CLR,,0.00,WeatherDisplay:10.37,2013-12-17 06:02:00,
2013-12-17 00:07:00,42.4,23.6,30.11,WNW,284,2.7,3.5,47,0.00,CLR,,0.00,WeatherDisplay:10.37,2013-12-17 06:07:00,
2013-12-17 00:12:00,42.4,23.6,30.11,West,281,2.7,3.5,47,0.00,CLR,,0.00,WeatherDisplay:10.37,2013-12-17 06:12:00,
2013-12-17 00:17:00,42.6,23.8,30.11,West,281,2.7,3.5,47,0.00,CLR,,0.00,WeatherDisplay:10.37,2013-12-17 06:17:00,
2013-12-17 00:22:00,42.6,23.8,30.11,West,281,2.2,3.5,47,0.00,CLR,,0.00,WeatherDisplay:10.37,2013-12-17 06:22:00,
2013-12-17 00:27:00,42.4,23.6,30.11,West,281,2.2,2.3,47,0.00,CLR,,0.00,WeatherDisplay:10.37,2013-12-17 06:27:00,
2013-12-17 00:32:00,42.4,23.6,30.11,West,281,2.2,2.3,47,0.00,CLR,,0.00,WeatherDisplay:10.37,2013-12-17 06:32:00,
2013-12-17 00:37:00,41.9,23.1,30.11,West,281,2.2,3.5,47,0.00,CLR,,0.00,WeatherDisplay:10.37,2013-12-17 06:37:00,
2013-12-17 00:42:00,41.4,22.6,30.11,West,281,0.0,2.3,47,0.00,CLR,,0.00,WeatherDisplay:10.37,2013-12-17 06:42:00,
2013-12-17 00:47:00,41.0,22.3,30.11,West,281,0.0,2.3,47,0.00,CLR,,0.00,WeatherDisplay:10.37,2013-12-17 06:47:00,
2013-12-17 00:52:00,40.6,22.0,30.11,West,281,0.0,0.0,47,0.00,CLR,,0.00,WeatherDisplay:10.37,2013-12-17 06:52:00,
2013-12-17 00:57:00,40.6,22.0,30.11,West,281,0.0,0.0,47,0.00,CLR,,0.00,WeatherDisplay:10.37,2013-12-17 06:57:00,
2013-12-17 01:02:00,40.6,22.0,30.11,West,281,0.0,0.0,47,0.00,CLR,,0.00,WeatherDisplay:10.37,2013-12-17 07:02:00,
2013-12-17 01:07:00,40.6,22.9,30.11,West,281,0.0,0.0,49,0.00,CLR,,0.00,WeatherDisplay:10.37,2013-12-17 07:07:00,
2013-12-17 01:12:00,40.6,22.9,30.11,West,281,0.0,0.0,49,0.00,CLR,,0.00,WeatherDisplay:10.37,2013-12-17 07:12:00,
2013-12-17 01:17:00,40.6,22.9,30.11,West,281,0.0,0.0,49,0.00,CLR,,0.00,WeatherDisplay:10.37,2013-12-17 07:17:00,
2013-12-17 01:22:00,40.8,23.1,30.11,West,281,0.0,0.0,49,0.00,CLR,,0.00,WeatherDisplay:10.37,2013-12-17 07:22:00,
2013-12-17 01:27:00,40.5,22.8,30.11,West,281,0.0,0.0,49,0.00,CLR,,0.00,WeatherDisplay:10.37,2013-12-17 07:27:00,
2013-12-17 01:32:00,40.3,22.6,30.11,West,281,0.0,0.0,49,0.00,CLR,,0.00,WeatherDisplay:10.37,2013-12-17 07:32:00,
2013-12-17 01:38:00,40.3,22.6,30.11,West,281,0.0,0.0,49,0.00,CLR,,0.00,WeatherDisplay:10.37,2013-12-17 07:38:00,
2013-12-17 01:43:00,40.1,22.4,30.11,West,281,0.0,0.0,49,0.00,CLR,,0.00,WeatherDisplay:10.37,2013-12-17 07:43:00,
2013-12-17 01:48:00,39.9,22.3,30.11,West,281,0.0,0.0,49,0.00,CLR,,0.00,WeatherDisplay:10.37,2013-12-17 07:48:00,
2013-12-17 01:53:00,39.6,22.0,30.11,West,281,0.0,0.0,49,0.00,CLR,,0.00,WeatherDisplay:10.37,2013-12-17 07:53:00,
2013-12-17 01:58:00,39.4,21.8,30.11,West,281,0.0,0.0,49,0.00,CLR,,0.00,WeatherDisplay:10.37,2013-12-17 07:58:00,
2013-12-17 02:03:00,39.6,22.0,30.11,West,281,0.0,0.0,49,0.00,CLR,,0.00,WeatherDisplay:10.37,2013-12-17 08:03:00,
2013-12-17 02:08:00,39.7,22.1,30.11,West,281,0.0,0.0,49,0.00,CLR,,0.00,WeatherDisplay:10.37,2013-12-17 08:08:00,
2013-12-17 02:13:00,39.7,22.1,30.11,West,281,0.0,0.0,49,0.00,CLR,,0.00,WeatherDisplay:10.37,2013-12-17 08:13:00,
2013-12-17 02:18:00,39.7,22.1,30.11,West,281,0.0,0.0,49,0.00,CLR,,0.00,WeatherDisplay:10.37,2013-12-17 08:18:00,
2013-12-17 02:23:00,39.7,22.1,30.11,West,281,0.0,0.0,49,0.00,CLR,,0.00,WeatherDisplay:10.37,2013-12-17 08:23:00,
2013-12-17 02:28:00,39.7,22.1,30.11,West,281,0.0,0.0,49,0.00,CLR,,0.00,WeatherDisplay:10.37,2013-12-17 08:28:00,
2013-12-17 02:33:00,39.7,22.1,30.11,West,281,0.0,0.0,49,0.00,CLR,,0.00,WeatherDisplay:10.37,2013-12-17 08:33:00,
2013-12-17 02:38:00,39.7,22.1,30.11,West,281,0.0,0.0,49,0.00,CLR,,0.00,WeatherDisplay:10.37,2013-12-17 08:38:00,
2013-12-17 02:43:00,39.4,21.8,30.11,West,281,0.0,0.0,49,0.00,CLR,,0.00,WeatherDisplay:10.37,2013-12-17 08:43:00,
2013-12-17 02:48:00,39.2,21.6,30.14,West,281,0.0,0.0,49,0.00,CLR,,0.00,WeatherDisplay:10.37,2013-12-17 08:48:00,
2013-12-17 02:53:00,39.0,21.9,30.14,West,281,0.0,0.0,50,0.00,CLR,,0.00,WeatherDisplay:10.37,2013-12-17 08:53:00,
2013-12-17 02:58:00,38.7,21.6,30.14,West,281,0.0,0.0,50,0.00,CLR,,0.00,WeatherDisplay:10.37,2013-12-17 08:58:00,
2013-12-17 03:03:00,38.1,21.1,30.14,West,281,0.0,0.0,50,0.00,CLR,,0.00,WeatherDisplay:10.37,2013-12-17 09:03:00,
2013-12-17 03:08:00,37.6,20.6,30.14,West,281,0.0,0.0,50,0.00,CLR,,0.00,WeatherDisplay:10.37,2013-12-17 09:08:00,
2013-12-17 03:13:00,37.4,20.4,30.14,West,281,0.0,0.0,50,0.00,CLR,,0.00,WeatherDisplay:10.37,2013-12-17 09:13:00,
2013-12-17 03:18:00,37.4,20.4,30.14,West,281,0.0,0.0,50,0.00,CLR,,0.00,WeatherDisplay:10.37,2013-12-17 09:18:00,
2013-12-17 03:23:00,37.2,20.3,30.14,West,281,0.0,0.0,50,0.00,CLR,,0.00,WeatherDisplay:10.37,2013-12-17 09:23:00,
2013-12-17 03:28:00,37.0,20.1,30.14,West,281,0.0,0.0,50,0.00,CLR,,0.00,WeatherDisplay:10.37,2013-12-17 09:28:00,
2013-12-17 03:33:00,36.7,19.8,30.14,West,281,0.0,0.0,50,0.00,CLR,,0.00,WeatherDisplay:10.37,2013-12-17 09:33:00,
2013-12-17 03:38:00,36.3,19.4,30.14,West,281,0.0,0.0,50,0.00,CLR,,0.00,WeatherDisplay:10.37,2013-12-17 09:38:00,
2013-12-17 03:43:00,36.1,19.3,30.14,West,281,0.0,0.0,50,0.00,CLR,,0.00,WeatherDisplay:10.37,2013-12-17 09:43:00,
2013-12-17 03:48:00,36.1,20.6,30.14,West,281,0.0,0.0,53,0.00,CLR,,0.00,WeatherDisplay:10.37,2013-12-17 09:48:00,
2013-12-17 03:53:00,36.1,20.6,30.14,West,281,0.0,0.0,53,0.00,CLR,,0.00,WeatherDisplay:10.37,2013-12-17 09:53:00,
2013-12-17 03:58:00,36.1,20.6,30.14,West,281,0.0,0.0,53,0.00,CLR,,0.00,WeatherDisplay:10.37,2013-12-17 09:58:00,
2013-12-17 04:03:00,36.1,20.6,30.11,West,281,0.0,0.0,53,0.00,CLR,,0.00,WeatherDisplay:10.37,2013-12-17 10:03:00,
2013-12-17 04:08:00,36.0,20.5,30.11,West,281,0.0,0.0,53,0.00,CLR,,0.00,WeatherDisplay:10.37,2013-12-17 10:08:00,
2013-12-17 04:13:00,35.8,20.3,30.11,West,281,0.0,0.0,53,0.00,CLR,,0.00,WeatherDisplay:10.37,2013-12-17 10:13:00,
2013-12-17 04:18:00,35.6,21.0,30.11,West,281,0.0,0.0,55,0.00,CLR,,0.00,WeatherDisplay:10.37,2013-12-17 10:18:00,
2013-12-17 04:23:00,35.4,21.3,30.11,West,281,0.0,0.0,56,0.00,CLR,,0.00,WeatherDisplay:10.37,2013-12-17 10:23:00,
2013-12-17 04:28:00,35.2,21.1,30.11,West,281,0.0,0.0,56,0.00,CLR,,0.00,WeatherDisplay:10.37,2013-12-17 10:28:00,
2013-12-17 04:33:00,35.2,21.1,30.11,West,281,0.0,0.0,56,0.00,CLR,,0.00,WeatherDisplay:10.37,2013-12-17 10:33:00,
2013-12-17 04:38:00,35.4,21.3,30.11,West,281,0.0,0.0,56,0.00,CLR,,0.00,WeatherDisplay:10.37,2013-12-17 10:38:00,
2013-12-17 04:43:00,35.4,21.3,30.11,West,281,0.0,0.0,56,0.00,CLR,,0.00,WeatherDisplay:10.37,2013-12-17 10:43:00,
2013-12-17 04:48:00,35.4,21.3,30.11,West,281,0.0,0.0,56,0.00,CLR,,0.00,WeatherDisplay:10.37,2013-12-17 10:48:00,
2013-12-17 04:53:00,35.8,21.6,30.11,West,281,0.0,0.0,56,0.00,CLR,,0.00,WeatherDisplay:10.37,2013-12-17 10:53:00,
2013-12-17 04:58:00,36.3,22.1,30.11,West,281,0.0,0.0,56,0.00,CLR,,0.00,WeatherDisplay:10.37,2013-12-17 10:58:00,
2013-12-17 05:03:00,36.7,22.4,30.11,West,281,0.0,0.0,56,0.00,CLR,,0.00,WeatherDisplay:10.37,2013-12-17 11:03:00,
2013-12-17 05:08:00,36.5,22.3,30.11,West,281,0.0,0.0,56,0.00,CLR,,0.00,WeatherDisplay:10.37,2013-12-17 11:08:00,
2013-12-17 05:13:00,36.1,21.9,30.11,West,281,0.0,0.0,56,0.00,CLR,,0.00,WeatherDisplay:10.37,2013-12-17 11:13:00,
2013-12-17 05:18:00,35.8,21.6,30.14,West,281,0.0,0.0,56,0.00,CLR,,0.00,WeatherDisplay:10.37,2013-12-17 11:18:00,
2013-12-17 05:23:00,35.4,21.3,30.14,West,281,0.0,0.0,56,0.00,CLR,,0.00,WeatherDisplay:10.37,2013-12-17 11:23:00,
2013-12-17 05:28:00,35.2,21.1,30.14,West,281,0.0,0.0,56,0.00,CLR,,0.00,WeatherDisplay:10.37,2013-12-17 11:28:00,
2013-12-17 05:33:00,35.1,20.9,30.14,West,281,0.0,0.0,56,0.00,CLR,,0.00,WeatherDisplay:10.37,2013-12-17 11:33:00,
2013-12-17 05:38:00,35.1,21.3,30.14,West,281,0.0,0.0,57,0.00,CLR,,0.00,WeatherDisplay:10.37,2013-12-17 11:38:00,
2013-12-17 05:43:00,35.1,21.3,30.14,West,281,0.0,0.0,57,0.00,CLR,,0.00,WeatherDisplay:10.37,2013-12-17 11:43:00,
2013-12-17 05:48:00,34.9,21.2,30.14,West,281,0.0,0.0,57,0.00,CLR,,0.00,WeatherDisplay:10.37,2013-12-17 11:48:00,
2013-12-17 05:53:00,34.9,21.2,30.14,West,281,0.0,0.0,57,0.00,CLR,,0.00,WeatherDisplay:10.37,2013-12-17 11:53:00,
2013-12-17 05:58:00,34.9,21.2,30.14,West,281,0.0,0.0,57,0.00,CLR,,0.00,WeatherDisplay:10.37,2013-12-17 11:58:00,
2013-12-17 06:03:00,34.5,20.8,30.14,West,281,0.0,0.0,57,0.00,CLR,,0.00,WeatherDisplay:10.37,2013-12-17 12:03:00,
2013-12-17 06:08:00,34.5,20.8,30.14,West,281,0.0,0.0,57,0.00,CLR,,0.00,WeatherDisplay:10.37,2013-12-17 12:08:00,
2013-12-17 06:13:00,34.3,20.7,30.14,West,281,0.0,0.0,57,0.00,CLR,,0.00,WeatherDisplay:10.37,2013-12-17 12:13:00,
2013-12-17 06:18:00,34.3,20.7,30.14,West,281,0.0,0.0,57,0.00,CLR,,0.00,WeatherDisplay:10.37,2013-12-17 12:18:00,
2013-12-17 06:23:00,34.3,20.7,30.14,West,281,0.0,0.0,57,0.00,CLR,,0.00,WeatherDisplay:10.37,2013-12-17 12:23:00,
2013-12-17 06:28:00,34.2,20.5,30.14,West,281,0.0,0.0,57,0.00,CLR,,0.00,WeatherDisplay:10.37,2013-12-17 12:28:00,
2013-12-17 06:33:00,34.0,20.3,30.17,West,281,0.0,0.0,57,0.00,CLR,,0.00,WeatherDisplay:10.37,2013-12-17 12:33:00,
2013-12-17 06:38:00,34.2,20.9,30.17,West,281,0.0,0.0,58,0.00,CLR,,0.00,WeatherDisplay:10.37,2013-12-17 12:38:00,
2013-12-17 06:43:00,33.8,20.6,30.17,West,281,0.0,0.0,58,0.00,CLR,,0.00,WeatherDisplay:10.37,2013-12-17 12:43:00,
2013-12-17 06:48:00,33.8,21.0,30.17,North,5,3.1,3.5,59,0.00,CLR,,0.00,WeatherDisplay:10.37,2013-12-17 12:48:00,
2013-12-17 06:53:00,34.3,21.5,30.17,NNE,23,2.7,3.5,59,0.00,CLR,,0.00,WeatherDisplay:10.37,2013-12-17 12:53:00,
2013-12-17 06:58:00,34.5,21.7,30.17,North,2,2.7,3.5,59,0.00,CLR,,0.00,WeatherDisplay:10.37,2013-12-17 12:58:00,
2013-12-17 07:03:00,34.9,22.0,30.17,North,357,2.7,3.6,59,0.00,CLR,,0.00,WeatherDisplay:10.37,2013-12-17 13:03:00,
2013-12-17 07:08:00,34.9,22.4,30.17,North,357,3.1,3.5,60,0.00,CLR,,0.00,WeatherDisplay:10.37,2013-12-17 13:08:00,
2013-12-17 07:13:00,35.1,22.6,30.17,North,357,2.2,3.1,60,0.00,CLR,,0.00,WeatherDisplay:10.37,2013-12-17 13:13:00,
2013-12-17 07:18:00,35.1,23.0,30.17,North,357,2.7,3.5,61,0.00,CLR,,0.00,WeatherDisplay:10.37,2013-12-17 13:18:00,
2013-12-17 07:23:00,35.4,23.3,30.17,North,357,3.6,3.6,61,0.00,CLR,,0.00,WeatherDisplay:10.37,2013-12-17 13:23:00,
2013-12-17 07:28:00,35.6,23.5,30.17,North,357,2.7,3.5,61,0.00,CLR,,0.00,WeatherDisplay:10.37,2013-12-17 13:28:00,
2013-12-17 07:33:00,35.6,23.5,30.19,North,5,3.1,4.6,61,0.00,CLR,,0.00,WeatherDisplay:10.37,2013-12-17 13:33:00,
2013-12-17 07:38:00,35.8,23.6,30.19,North,0,3.1,3.5,61,0.00,CLR,,0.00,WeatherDisplay:10.37,2013-12-17 13:38:00,
2013-12-17 07:43:00,35.8,23.6,30.19,North,0,3.6,3.6,61,0.00,CLR,,0.00,WeatherDisplay:10.37,2013-12-17 13:43:00,
2013-12-17 07:48:00,36.0,24.2,30.17,North,0,2.7,3.6,62,0.00,CLR,,0.00,WeatherDisplay:10.37,2013-12-17 13:48:00,
2013-12-17 07:53:00,36.0,23.8,30.17,NNE,12,2.7,3.5,61,0.00,CLR,,0.00,WeatherDisplay:10.37,2013-12-17 13:53:00,
2013-12-17 07:58:00,36.1,24.4,30.17,NNE,19,3.1,3.5,62,0.00,CLR,,0.00,WeatherDisplay:10.37,2013-12-17 13:58:00,
2013-12-17 08:03:00,36.1,24.0,30.17,North,349,2.2,3.5,61,0.00,CLR,,0.00,WeatherDisplay:10.37,2013-12-17 14:03:00,
2013-12-17 08:08:00,36.3,24.5,30.17,NNE,29,2.7,3.5,62,0.00,CLR,,0.00,WeatherDisplay:10.37,2013-12-17 14:08:00,
2013-12-17 08:13:00,36.3,24.5,30.17,North,4,0.0,0.0,62,0.00,CLR,,0.00,WeatherDisplay:10.37,2013-12-17 14:13:00,
2013-12-17 08:18:00,36.5,24.7,30.19,North,4,0.0,0.0,62,0.00,CLR,,0.00,WeatherDisplay:10.37,2013-12-17 14:18:00,
2013-12-17 08:23:00,36.9,25.0,30.19,North,4,2.7,3.5,62,0.00,CLR,,0.00,WeatherDisplay:10.37,2013-12-17 14:23:00,
2013-12-17 08:28:00,37.0,25.2,30.19,North,357,3.6,4.6,62,0.00,CLR,,0.00,WeatherDisplay:10.37,2013-12-17 14:28:00,
2013-12-17 08:32:00,37.2,25.4,30.19,NNW,332,3.6,4.6,62,0.00,CLR,,0.00,WeatherDisplay:10.37,2013-12-17 14:32:00,
2013-12-17 08:37:00,37.6,25.3,30.19,North,357,4.0,5.8,61,0.00,CLR,,0.00,WeatherDisplay:10.37,2013-12-17 14:37:00,
2013-12-17 08:42:00,37.9,25.7,30.19,NNW,340,3.6,3.6,61,0.00,CLR,,0.00,WeatherDisplay:10.37,2013-12-17 14:42:00,
2013-12-17 08:47:00,38.5,26.2,30.19,North,357,2.2,3.5,61,0.00,CLR,,0.00,WeatherDisplay:10.37,2013-12-17 14:47:00,
2013-12-17 08:52:00,38.8,26.1,30.19,North,353,0.0,0.0,60,0.00,CLR,,0.00,WeatherDisplay:10.37,2013-12-17 14:52:00,
2013-12-17 08:57:00,39.2,26.5,30.19,North,353,0.0,0.0,60,0.00,CLR,,0.00,WeatherDisplay:10.37,2013-12-17 14:57:00,
2013-12-17 09:02:00,39.7,26.6,30.19,North,353,0.0,0.0,59,0.00,CLR,,0.00,WeatherDisplay:10.37,2013-12-17 15:02:00,
2013-12-17 09:07:00,39.9,26.7,30.19,North,353,0.0,0.0,59,0.00,CLR,,0.00,WeatherDisplay:10.37,2013-12-17 15:07:00,
2013-12-17 09:12:00,40.3,26.7,30.19,North,357,2.7,3.5,58,0.00,CLR,,0.00,WeatherDisplay:10.37,2013-12-17 15:12:00,
2013-12-17 09:17:00,40.6,26.6,30.19,NNE,14,0.0,0.0,57,0.00,CLR,,0.00,WeatherDisplay:10.37,2013-12-17 15:17:00,
2013-12-17 09:22:00,41.0,26.9,30.19,WNW,301,0.0,0.0,57,0.00,CLR,,0.00,WeatherDisplay:10.37,2013-12-17 15:22:00,
2013-12-17 09:27:00,41.7,27.2,30.19,WNW,302,0.0,0.0,56,0.00,CLR,,0.00,WeatherDisplay:10.37,2013-12-17 15:27:00,
2013-12-17 09:32:00,42.1,27.5,30.19,West,271,0.0,0.0,56,0.00,CLR,,0.00,WeatherDisplay:10.37,2013-12-17 15:32:00,
2013-12-17 09:37:00,42.6,27.6,30.19,NW,306,3.1,4.6,55,0.00,CLR,,0.00,WeatherDisplay:10.37,2013-12-17 15:37:00,
2013-12-17 09:42:00,43.0,27.9,30.19,WSW,257,2.7,3.6,55,0.00,CLR,,0.00,WeatherDisplay:10.37,2013-12-17 15:42:00,
2013-12-17 09:47:00,43.3,28.2,30.19,WSW,257,3.1,3.5,55,0.00,CLR,,0.00,WeatherDisplay:10.37,2013-12-17 15:47:00,
2013-12-17 09:52:00,43.7,28.1,30.19,NW,304,3.1,3.5,54,0.00,CLR,,0.00,WeatherDisplay:10.37,2013-12-17 15:52:00,
2013-12-17 09:57:00,44.1,28.5,30.19,WSW,256,3.1,5.8,54,0.00,CLR,,0.00,WeatherDisplay:10.37,2013-12-17 15:57:00,
2013-12-17 10:02:00,44.6,29.0,30.19,NW,308,2.7,3.5,54,0.00,CLR,,0.00,WeatherDisplay:10.37,2013-12-17 16:02:00,
2013-12-17 10:07:00,44.8,28.7,30.19,NW,321,2.7,3.5,53,0.00,CLR,,0.00,WeatherDisplay:10.37,2013-12-17 16:07:00,
2013-12-17 10:12:00,45.3,29.2,30.19,NNW,327,2.2,3.5,53,0.00,CLR,,0.00,WeatherDisplay:10.37,2013-12-17 16:12:00,
2013-12-17 10:17:00,45.7,28.6,30.22,NW,325,3.1,3.5,51,0.00,CLR,,0.00,WeatherDisplay:10.37,2013-12-17 16:17:00,
2013-12-17 10:22:00,46.2,29.1,30.22,NW,307,3.6,5.8,51,0.00,CLR,,0.00,WeatherDisplay:10.37,2013-12-17 16:22:00,
2013-12-17 10:27:00,46.6,28.9,30.22,NW,318,3.6,5.4,50,0.00,CLR,,0.00,WeatherDisplay:10.37,2013-12-17 16:27:00,
2013-12-17 10:32:00,46.8,28.1,30.22,NW,313,4.0,4.6,48,0.00,CLR,,0.00,WeatherDisplay:10.37,2013-12-17 16:32:00,
2013-12-17 10:37:00,47.1,28.4,30.22,North,357,3.1,3.5,48,0.00,CLR,,0.00,WeatherDisplay:10.37,2013-12-17 16:37:00,
2013-12-17 10:42:00,47.3,28.6,30.22,NNW,332,3.6,4.6,48,0.00,CLR,,0.00,WeatherDisplay:10.37,2013-12-17 16:42:00,
2013-12-17 10:47:00,47.7,28.9,30.19,NW,316,4.9,5.8,48,0.00,CLR,,0.00,WeatherDisplay:10.37,2013-12-17 16:47:00,
2013-12-17 10:52:00,48.0,29.2,30.19,NW,324,2.7,3.5,48,0.00,CLR,,0.00,WeatherDisplay:10.37,2013-12-17 16:52:00,
2013-12-17 10:57:00,48.4,29.1,30.19,NW,326,3.6,5.8,47,0.00,CLR,,0.00,WeatherDisplay:10.37,2013-12-17 16:57:00,
2013-12-17 11:02:00,48.7,29.4,30.19,NW,310,4.5,5.8,47,0.00,CLR,,0.00,WeatherDisplay:10.37,2013-12-17 17:02:00,
2013-12-17 11:07:00,48.9,29.6,30.19,West,264,4.0,5.8,47,0.00,CLR,,0.00,WeatherDisplay:10.37,2013-12-17 17:07:00,
2013-12-17 11:12:00,49.3,29.9,30.19,WSW,257,3.1,5.8,47,0.00,CLR,,0.00,WeatherDisplay:10.37,2013-12-17 17:12:00,
2013-12-17 11:17:00,49.5,30.0,30.19,NW,312,4.0,4.6,47,0.00,CLR,,0.00,WeatherDisplay:10.37,2013-12-17 17:17:00,
2013-12-17 11:22:00,49.6,30.2,30.19,NW,313,4.5,5.8,47,0.00,CLR,,0.00,WeatherDisplay:10.37,2013-12-17 17:22:00,
2013-12-17 11:27:00,50.0,30.5,30.19,NW,320,4.5,5.8,47,0.00,CLR,,0.00,WeatherDisplay:10.37,2013-12-17 17:27:00,
2013-12-17 11:32:00,50.2,29.6,30.19,NW,322,6.3,9.2,45,0.00,CLR,,0.00,WeatherDisplay:10.37,2013-12-17 17:32:00,
2013-12-17 11:37:00,50.4,29.8,30.19,NNW,328,4.9,6.3,45,0.00,CLR,,0.00,WeatherDisplay:10.37,2013-12-17 17:37:00,
2013-12-17 11:42:00,50.7,30.1,30.19,WNW,301,3.6,8.1,45,0.00,CLR,,0.00,WeatherDisplay:10.37,2013-12-17 17:42:00,
2013-12-17 11:47:00,50.9,30.3,30.22,North,353,4.5,5.8,45,0.00,CLR,,0.00,WeatherDisplay:10.37,2013-12-17 17:47:00,
2013-12-17 11:52:00,50.9,30.3,30.22,NNW,327,4.0,5.8,45,0.00,CLR,,0.00,WeatherDisplay:10.37,2013-12-17 17:52:00,
2013-12-17 11:57:00,50.9,30.3,30.22,North,353,3.1,3.5,45,0.00,CLR,,0.00,WeatherDisplay:10.37,2013-12-17 17:57:00,
2013-12-17 12:02:00,50.9,30.3,30.19,WNW,292,5.8,6.3,45,0.00,CLR,,0.00,WeatherDisplay:10.37,2013-12-17 18:02:00,
2013-12-17 12:07:00,51.1,30.5,30.19,NW,323,3.6,4.6,45,0.00,CLR,,0.00,WeatherDisplay:10.37,2013-12-17 18:07:00,
2013-12-17 12:12:00,51.3,30.6,30.19,NNW,336,3.1,4.6,45,0.00,CLR,,0.00,WeatherDisplay:10.37,2013-12-17 18:12:00,
2013-12-17 12:17:00,51.4,30.8,30.19,NNW,327,3.6,5.8,45,0.00,CLR,,0.00,WeatherDisplay:10.37,2013-12-17 18:17:00,
2013-12-17 12:22:00,51.4,30.8,30.19,NNW,330,4.0,5.8,45,0.00,CLR,,0.00,WeatherDisplay:10.37,2013-12-17 18:22:00,
2013-12-17 12:27:00,51.4,30.8,30.19,North,350,5.8,8.1,45,0.00,CLR,,0.00,WeatherDisplay:10.37,2013-12-17 18:27:00,
2013-12-17 12:35:00,51.4,30.8,30.19,NW,322,4.5,5.8,45,0.00,CLR,,0.00,WeatherDisplay:10.37,2013-12-17 18:35:00,
2013-12-17 12:40:00,51.4,30.8,30.19,NNW,343,5.8,8.1,45,0.00,CLR,,0.00,WeatherDisplay:10.37,2013-12-17 18:40:00,
2013-12-17 12:45:00,51.4,30.8,30.19,NNW,331,6.3,8.1,45,0.00,CLR,,0.00,WeatherDisplay:10.37,2013-12-17 18:45:00,
2013-12-17 12:50:00,51.4,30.8,30.19,NNW,335,3.1,4.6,45,0.00,CLR,,0.00,WeatherDisplay:10.37,2013-12-17 18:50:00,
2013-12-17 12:55:00,51.4,30.8,30.19,NNW,345,6.3,9.2,45,0.00,CLR,,0.00,WeatherDisplay:10.37,2013-12-17 18:55:00,
2013-12-17 13:00:00,51.4,30.8,30.19,WNW,282,5.4,8.1,45,0.00,CLR,,0.00,WeatherDisplay:10.37,2013-12-17 19:00:00,
2013-12-17 13:05:00,51.4,30.8,30.19,NW,314,5.4,5.8,45,0.00,CLR,,0.00,WeatherDisplay:10.37,2013-12-17 19:05:00,
2013-12-17 13:10:00,51.4,30.8,30.19,NNW,344,6.3,8.1,45,0.00,CLR,,0.00,WeatherDisplay:10.37,2013-12-17 19:10:00,
2013-12-17 13:15:00,51.8,30.6,30.19,NNW,345,4.9,5.8,44,0.00,CLR,,0.00,WeatherDisplay:10.37,2013-12-17 19:15:00,
2013-12-17 13:20:00,51.6,30.9,30.19,North,1,6.3,8.1,45,0.00,CLR,,0.00,WeatherDisplay:10.37,2013-12-17 19:20:00,
2013-12-17 13:25:00,51.8,30.6,30.19,North,357,6.3,8.1,44,0.00,CLR,,0.00,WeatherDisplay:10.37,2013-12-17 19:25:00,
2013-12-17 13:30:00,51.6,30.9,30.19,North,357,6.7,8.1,45,0.00,CLR,,0.00,WeatherDisplay:10.37,2013-12-17 19:30:00,
2013-12-17 13:35:00,51.6,30.9,30.19,North,2,4.9,8.1,45,0.00,CLR,,0.00,WeatherDisplay:10.37,2013-12-17 19:35:00,
2013-12-17 13:40:00,51.4,30.8,30.19,North,1,6.7,10.4,45,0.00,CLR,,0.00,WeatherDisplay:10.37,2013-12-17 19:40:00,
2013-12-17 13:45:00,51.4,30.8,30.19,NNW,343,3.6,9.6,45,0.00,CLR,,0.00,WeatherDisplay:10.37,2013-12-17 19:45:00,
2013-12-17 13:50:00,51.3,30.6,30.19,NNW,348,6.7,9.2,45,0.00,CLR,,0.00,WeatherDisplay:10.37,2013-12-17 19:50:00,
2013-12-17 13:55:00,51.1,30.5,30.19,North,7,5.8,8.1,45,0.00,CLR,,0.00,WeatherDisplay:10.37,2013-12-17 19:55:00,
2013-12-17 14:00:00,51.1,30.5,30.19,North,0,3.6,4.6,45,0.00,CLR,,0.00,WeatherDisplay:10.37,2013-12-17 20:00:00,
2013-12-17 14:05:00,51.1,30.5,30.19,WNW,287,3.1,5.8,45,0.00,CLR,,0.00,WeatherDisplay:10.37,2013-12-17 20:05:00,
2013-12-17 14:10:00,50.9,30.3,30.19,NW,326,6.7,9.2,45,0.00,CLR,,0.00,WeatherDisplay:10.37,2013-12-17 20:10:00,
2013-12-17 14:15:00,51.1,30.5,30.19,North,353,5.4,8.1,45,0.00,CLR,,0.00,WeatherDisplay:10.37,2013-12-17 20:15:00,
2013-12-17 14:20:00,51.1,30.5,30.19,NNW,332,4.0,5.8,45,0.00,CLR,,0.00,WeatherDisplay:10.37,2013-12-17 20:20:00,
2013-12-17 14:25:00,50.9,30.3,30.19,North,353,4.0,5.8,45,0.00,CLR,,0.00,WeatherDisplay:10.37,2013-12-17 20:25:00,
2013-12-17 14:30:00,51.1,30.5,30.19,NW,322,4.9,5.8,45,0.00,CLR,,0.00,WeatherDisplay:10.37,2013-12-17 20:30:00,
2013-12-17 14:35:00,51.1,30.5,30.19,North,350,4.5,5.8,45,0.00,CLR,,0.00,WeatherDisplay:10.37,2013-12-17 20:35:00,
2013-12-17 14:40:00,50.9,30.3,30.19,North,0,4.5,8.1,45,0.00,CLR,,0.00,WeatherDisplay:10.37,2013-12-17 20:40:00,
2013-12-17 14:45:00,51.3,30.6,30.19,WNW,283,6.3,9.2,45,0.00,CLR,,0.00,WeatherDisplay:10.37,2013-12-17 20:45:00,
2013-12-17 14:50:00,51.1,30.5,30.19,WNW,295,5.8,8.1,45,0.00,CLR,,0.00,WeatherDisplay:10.37,2013-12-17 20:50:00,
2013-12-17 14:55:00,50.9,30.3,30.19,NW,306,4.0,5.8,45,0.00,CLR,,0.00,WeatherDisplay:10.37,2013-12-17 20:55:00,
2013-12-17 15:00:00,50.9,30.3,30.19,WNW,291,5.4,8.1,45,0.00,CLR,,0.00,WeatherDisplay:10.37,2013-12-17 21:00:00,
2013-12-17 15:05:00,50.9,30.3,30.19,NW,306,5.4,8.1,45,0.00,CLR,,0.00,WeatherDisplay:10.37,2013-12-17 21:05:00,
2013-12-17 15:10:00,50.7,30.1,30.19,WNW,303,4.9,9.2,45,0.00,CLR,,0.00,WeatherDisplay:10.37,2013-12-17 21:10:00,
2013-12-17 15:15:00,50.7,30.1,30.19,West,273,5.8,8.1,45,0.00,CLR,,0.00,WeatherDisplay:10.37,2013-12-17 21:15:00,
2013-12-17 15:20:00,50.4,29.8,30.19,NNW,342,6.7,6.7,45,0.00,CLR,,0.00,WeatherDisplay:10.37,2013-12-17 21:20:00,
2013-12-17 15:25:00,50.2,29.6,30.19,NNW,342,4.9,9.2,45,0.00,CLR,,0.00,WeatherDisplay:10.37,2013-12-17 21:25:00,
2013-12-17 15:30:00,50.2,29.6,30.19,NW,313,4.5,5.8,45,0.00,CLR,,0.00,WeatherDisplay:10.37,2013-12-17 21:30:00,
2013-12-17 15:35:00,50.0,29.5,30.22,NW,326,7.6,9.2,45,0.00,CLR,,0.00,WeatherDisplay:10.37,2013-12-17 21:35:00,
2013-12-17 15:40:00,49.8,29.3,30.22,NW,310,7.6,10.4,45,0.00,CLR,,0.00,WeatherDisplay:10.37,2013-12-17 21:40:00,
2013-12-17 15:45:00,49.6,29.1,30.22,NW,321,3.1,4.6,45,0.00,CLR,,0.00,WeatherDisplay:10.37,2013-12-17 21:45:00,
2013-12-17 15:50:00,49.6,29.1,30.22,West,261,5.8,9.2,45,0.00,CLR,,0.00,WeatherDisplay:10.37,2013-12-17 21:50:00,
2013-12-17 15:55:00,49.3,28.8,30.22,WNW,303,5.8,8.1,45,0.00,CLR,,0.00,WeatherDisplay:10.37,2013-12-17 21:55:00,
2013-12-17 16:00:00,49.1,28.7,30.22,NNW,333,7.2,9.2,45,0.00,CLR,,0.00,WeatherDisplay:10.37,2013-12-17 22:00:00,
2013-12-17 16:05:00,48.9,28.5,30.22,NW,320,4.9,5.8,45,0.00,CLR,,0.00,WeatherDisplay:10.37,2013-12-17 22:05:00,
2013-12-17 16:10:00,48.9,28.5,30.22,WNW,299,5.4,9.2,45,0.00,CLR,,0.00,WeatherDisplay:10.37,2013-12-17 22:10:00,
2013-12-17 16:15:00,48.6,28.2,30.22,NNW,329,4.0,4.6,45,0.00,CLR,,0.00,WeatherDisplay:10.37,2013-12-17 22:15:00,
2013-12-17 16:18:00,48.6,28.2,30.22,NW,305,2.7,3.6,45,0.00,CLR,,0.00,WeatherDisplay:10.37,2013-12-17 22:18:00,
2013-12-17 16:23:00,48.2,27.8,30.22,NNW,327,4.0,4.6,45,0.00,CLR,,0.00,WeatherDisplay:10.37,2013-12-17 22:23:00,
2013-12-17 16:28:00,48.0,27.7,30.22,NW,326,2.7,3.5,45,0.00,CLR,,0.00,WeatherDisplay:10.37,2013-12-17 22:28:00,
2013-12-17 16:33:00,47.7,27.3,30.22,NW,319,3.1,4.6,45,0.00,CLR,,0.00,WeatherDisplay:10.37,2013-12-17 22:33:00,
2013-12-17 16:38:00,47.3,27.0,30.22,West,281,3.6,3.6,45,0.00,CLR,,0.00,WeatherDisplay:10.37,2013-12-17 22:38:00,
2013-12-17 16:43:00,47.1,26.8,30.22,NW,307,4.0,4.6,45,0.00,CLR,,0.00,WeatherDisplay:10.37,2013-12-17 22:43:00,
2013-12-17 16:48:00,46.8,26.5,30.22,NW,324,2.7,3.5,45,0.00,CLR,,0.00,WeatherDisplay:10.37,2013-12-17 22:48:00,
2013-12-17 16:53:00,46.4,26.2,30.22,NW,323,2.2,2.3,45,0.00,CLR,,0.00,WeatherDisplay:10.37,2013-12-17 22:53:00,
2013-12-17 16:58:00,46.0,26.4,30.22,NW,318,0.0,0.0,46,0.00,CLR,,0.00,WeatherDisplay:10.37,2013-12-17 22:58:00,
2013-12-17 17:03:00,45.7,26.1,30.22,NW,318,0.0,0.0,46,0.00,CLR,,0.00,WeatherDisplay:10.37,2013-12-17 23:03:00,
2013-12-17 17:08:00,45.5,25.9,30.22,NW,318,0.0,0.0,46,0.00,CLR,,0.00,WeatherDisplay:10.37,2013-12-17 23:08:00,
2013-12-17 17:13:00,45.3,25.7,30.22,NW,318,0.0,0.0,46,0.00,CLR,,0.00,WeatherDisplay:10.37,2013-12-17 23:13:00,
2013-12-17 17:18:00,44.8,25.2,30.22,NW,318,0.0,0.0,46,0.00,CLR,,0.00,WeatherDisplay:10.37,2013-12-17 23:18:00,
2013-12-17 17:23:00,44.2,24.7,30.22,NW,318,0.0,0.0,46,0.00,CLR,,0.00,WeatherDisplay:10.37,2013-12-17 23:23:00,
2013-12-17 17:28:00,43.9,24.4,30.22,NW,318,0.0,0.0,46,0.00,CLR,,0.00,WeatherDisplay:10.37,2013-12-17 23:28:00,
2013-12-17 17:33:00,43.7,24.2,30.22,NW,318,0.0,0.0,46,0.00,CLR,,0.00,WeatherDisplay:10.37,2013-12-17 23:33:00,
2013-12-17 17:38:00,43.3,23.9,30.22,NW,318,0.0,0.0,46,0.00,CLR,,0.00,WeatherDisplay:10.37,2013-12-17 23:38:00,
2013-12-17 17:43:00,43.0,23.6,30.22,NW,318,0.0,0.0,46,0.00,CLR,,0.00,WeatherDisplay:10.37,2013-12-17 23:43:00,
2013-12-17 17:48:00,42.8,23.4,30.22,NW,318,0.0,0.0,46,0.00,CLR,,0.00,WeatherDisplay:10.37,2013-12-17 23:48:00,
2013-12-17 17:53:00,43.0,23.6,30.22,NW,318,0.0,0.0,46,0.00,CLR,,0.00,WeatherDisplay:10.37,2013-12-17 23:53:00,
2013-12-17 17:58:00,42.8,23.4,30.22,NW,318,0.0,0.0,46,0.00,CLR,,0.00,WeatherDisplay:10.37,2013-12-17 23:58:00,
2013-12-17 18:03:00,42.4,23.6,30.22,NW,318,0.0,0.0,47,0.00,CLR,,0.00,WeatherDisplay:10.37,2013-12-18 00:03:00,
2013-12-17 18:08:00,42.1,23.3,30.22,NW,318,0.0,0.0,47,0.00,CLR,,0.00,WeatherDisplay:10.37,2013-12-18 00:08:00,
2013-12-17 18:13:00,41.9,23.1,30.22,NW,318,2.7,3.5,47,0.00,CLR,,0.00,WeatherDisplay:10.37,2013-12-18 00:13:00,
2013-12-17 18:18:00,41.7,22.9,30.22,NW,318,2.7,3.5,47,0.00,CLR,,0.00,WeatherDisplay:10.37,2013-12-18 00:18:00,
2013-12-17 18:23:00,41.7,22.9,30.22,NW,318,2.7,3.5,47,0.00,CLR,,0.00,WeatherDisplay:10.37,2013-12-18 00:23:00,
2013-12-17 18:28:00,41.5,22.8,30.22,NW,318,2.7,3.6,47,0.00,CLR,,0.00,WeatherDisplay:10.37,2013-12-18 00:28:00,
2013-12-17 18:33:00,41.4,22.6,30.25,NW,318,3.1,3.5,47,0.00,CLR,,0.00,WeatherDisplay:10.37,2013-12-18 00:33:00,
2013-12-17 18:38:00,41.4,22.6,30.25,NW,319,2.7,3.5,47,0.00,CLR,,0.00,WeatherDisplay:10.37,2013-12-18 00:38:00,
2013-12-17 18:43:00,41.2,22.5,30.25,NNW,331,2.2,3.5,47,0.00,CLR,,0.00,WeatherDisplay:10.37,2013-12-18 00:43:00,
2013-12-17 18:48:00,41.4,22.6,30.25,NNW,331,2.2,3.5,47,0.00,CLR,,0.00,WeatherDisplay:10.37,2013-12-18 00:48:00,
2013-12-17 18:53:00,41.2,22.5,30.25,NNW,330,2.2,2.3,47,0.00,CLR,,0.00,WeatherDisplay:10.37,2013-12-18 00:53:00,
2013-12-17 18:58:00,41.2,22.5,30.25,NNW,330,2.7,2.7,47,0.00,CLR,,0.00,WeatherDisplay:10.37,2013-12-18 00:58:00,
2013-12-17 19:03:00,41.0,22.3,30.25,NNW,330,2.2,2.3,47,0.00,CLR,,0.00,WeatherDisplay:10.37,2013-12-18 01:03:00,
2013-12-17 19:08:00,41.0,22.3,30.25,NNW,330,2.2,2.3,47,0.00,CLR,,0.00,WeatherDisplay:10.37,2013-12-18 01:08:00,
2013-12-17 19:13:00,40.8,22.1,30.25,NNW,330,2.2,3.5,47,0.00,CLR,,0.00,WeatherDisplay:10.37,2013-12-18 01:13:00,
2013-12-17 19:18:00,40.6,22.0,30.25,NNW,330,2.2,2.3,47,0.00,CLR,,0.00,WeatherDisplay:10.37,2013-12-18 01:18:00,
2013-12-17 19:23:00,40.3,21.6,30.25,NNW,330,2.7,3.5,47,0.00,CLR,,0.00,WeatherDisplay:10.37,2013-12-18 01:23:00,
2013-12-17 19:28:00,40.1,21.5,30.25,NNW,330,3.1,3.5,47,0.00,CLR,,0.00,WeatherDisplay:10.37,2013-12-18 01:28:00,
2013-12-17 19:33:00,39.9,21.3,30.25,NNW,330,2.7,3.5,47,0.00,CLR,,0.00,WeatherDisplay:10.37,2013-12-18 01:33:00,
2013-12-17 19:38:00,39.9,21.3,30.25,NNW,330,2.2,2.3,47,0.00,CLR,,0.00,WeatherDisplay:10.37,2013-12-18 01:38:00,
2013-12-17 19:43:00,39.9,21.3,30.25,NNW,330,2.2,2.3,47,0.00,CLR,,0.00,WeatherDisplay:10.37,2013-12-18 01:43:00,
2013-12-17 19:48:00,39.9,21.3,30.28,NNW,330,0.0,2.3,47,0.00,CLR,,0.00,WeatherDisplay:10.37,2013-12-18 01:48:00,
2013-12-17 19:53:00,39.7,21.1,30.28,NNW,330,2.7,2.7,47,0.00,CLR,,0.00,WeatherDisplay:10.37,2013-12-18 01:53:00,
2013-12-17 19:58:00,39.7,21.1,30.28,NNW,330,2.7,3.6,47,0.00,CLR,,0.00,WeatherDisplay:10.37,2013-12-18 01:58:00,
2013-12-17 20:03:00,39.7,21.1,30.28,NNW,330,2.2,3.5,47,0.00,CLR,,0.00,WeatherDisplay:10.37,2013-12-18 02:03:00,
2013-12-17 20:08:00,39.6,21.0,30.28,NNW,330,3.1,4.0,47,0.00,CLR,,0.00,WeatherDisplay:10.37,2013-12-18 02:08:00,
2013-12-17 20:13:00,39.6,21.0,30.28,NNW,330,2.7,3.5,47,0.00,CLR,,0.00,WeatherDisplay:10.37,2013-12-18 02:13:00,
2013-12-17 20:18:00,39.6,21.0,30.28,NNW,330,3.1,3.5,47,0.00,CLR,,0.00,WeatherDisplay:10.37,2013-12-18 02:18:00,
2013-12-17 20:23:00,39.6,21.0,30.28,NNW,330,2.7,3.5,47,0.00,CLR,,0.00,WeatherDisplay:10.37,2013-12-18 02:23:00,
2013-12-17 20:28:00,39.4,20.8,30.28,NNW,330,2.7,3.5,47,0.00,CLR,,0.00,WeatherDisplay:10.37,2013-12-18 02:28:00,
2013-12-17 20:33:00,39.2,20.6,30.28,NNW,330,2.2,3.5,47,0.00,CLR,,0.00,WeatherDisplay:10.37,2013-12-18 02:33:00,
2013-12-17 20:38:00,38.8,20.3,30.28,NNW,330,2.2,2.3,47,0.00,CLR,,0.00,WeatherDisplay:10.37,2013-12-18 02:38:00,
2013-12-17 20:43:00,38.7,20.1,30.28,NNW,330,2.2,2.3,47,0.00,CLR,,0.00,WeatherDisplay:10.37,2013-12-18 02:43:00,
2013-12-17 20:48:00,38.8,21.8,30.28,NNW,330,2.7,3.5,50,0.00,CLR,,0.00,WeatherDisplay:10.37,2013-12-18 02:48:00,
2013-12-17 20:53:00,38.8,21.8,30.28,NNW,330,2.2,3.5,50,0.00,CLR,,0.00,WeatherDisplay:10.37,2013-12-18 02:53:00,
2013-12-17 20:58:00,38.8,21.8,30.28,NNW,334,2.2,2.3,50,0.00,CLR,,0.00,WeatherDisplay:10.37,2013-12-18 02:58:00,
2013-12-17 21:03:00,39.0,21.9,30.28,NNW,337,3.1,3.5,50,0.00,CLR,,0.00,WeatherDisplay:10.37,2013-12-18 03:03:00,
2013-12-17 21:08:00,39.0,21.9,30.28,NNW,331,2.7,5.8,50,0.00,CLR,,0.00,WeatherDisplay:10.37,2013-12-18 03:08:00,
2013-12-17 21:13:00,39.2,21.6,30.28,NNW,329,2.7,3.5,49,0.00,CLR,,0.00,WeatherDisplay:10.37,2013-12-18 03:13:00,
2013-12-17 21:18:00,39.2,21.6,30.28,NNW,330,2.7,3.5,49,0.00,CLR,,0.00,WeatherDisplay:10.37,2013-12-18 03:18:00,
2013-12-17 21:23:00,38.8,21.8,30.28,NNW,330,2.7,3.6,50,0.00,CLR,,0.00,WeatherDisplay:10.37,2013-12-18 03:23:00,
2013-12-17 21:28:00,38.8,21.8,30.28,NNW,330,3.1,3.5,50,0.00,CLR,,0.00,WeatherDisplay:10.37,2013-12-18 03:28:00,
2013-12-17 21:33:00,38.8,21.8,30.28,NNW,330,2.7,3.5,50,0.00,CLR,,0.00,WeatherDisplay:10.37,2013-12-18 03:33:00,
2013-12-17 21:38:00,38.7,21.6,30.28,NNW,330,2.2,3.1,50,0.00,CLR,,0.00,WeatherDisplay:10.37,2013-12-18 03:38:00,
2013-12-17 21:43:00,38.7,21.6,30.28,NNW,344,3.1,3.5,50,0.00,CLR,,0.00,WeatherDisplay:10.37,2013-12-18 03:43:00,
2013-12-17 21:48:00,38.8,21.8,30.28,NNW,345,2.7,3.5,50,0.00,CLR,,0.00,WeatherDisplay:10.37,2013-12-18 03:48:00,
2013-12-17 21:53:00,38.8,21.8,30.28,NNW,344,2.7,3.5,50,0.00,CLR,,0.00,WeatherDisplay:10.37,2013-12-18 03:53:00,
2013-12-17 21:58:00,38.8,21.8,30.28,NNW,344,2.7,3.5,50,0.00,CLR,,0.00,WeatherDisplay:10.37,2013-12-18 03:58:00,
2013-12-17 22:03:00,38.8,21.8,30.31,NNW,344,2.2,3.5,50,0.00,CLR,,0.00,WeatherDisplay:10.37,2013-12-18 04:03:00,
2013-12-17 22:08:00,38.7,21.6,30.31,NNW,344,2.2,2.3,50,0.00,CLR,,0.00,WeatherDisplay:10.37,2013-12-18 04:08:00,
2013-12-17 22:13:00,38.5,21.4,30.31,NNW,344,0.0,2.3,50,0.00,CLR,,0.00,WeatherDisplay:10.37,2013-12-18 04:13:00,
2013-12-17 22:18:00,38.3,21.3,30.31,NNW,344,2.2,2.3,50,0.00,CLR,,0.00,WeatherDisplay:10.37,2013-12-18 04:18:00,
2013-12-17 22:23:00,38.1,21.1,30.31,NNW,344,2.2,3.5,50,0.00,CLR,,0.00,WeatherDisplay:10.37,2013-12-18 04:23:00,
2013-12-17 22:28:00,38.1,21.1,30.31,North,353,3.1,3.5,50,0.00,CLR,,0.00,WeatherDisplay:10.37,2013-12-18 04:28:00,
2013-12-17 22:33:00,38.3,21.3,30.31,North,353,3.1,3.5,50,0.00,CLR,,0.00,WeatherDisplay:10.37,2013-12-18 04:33:00,
2013-12-17 22:38:00,38.7,21.6,30.31,North,357,3.6,3.6,50,0.00,CLR,,0.00,WeatherDisplay:10.37,2013-12-18 04:38:00,
2013-12-17 22:43:00,38.8,20.3,30.31,North,5,3.6,3.6,47,0.00,CLR,,0.00,WeatherDisplay:10.37,2013-12-18 04:43:00,
2013-12-17 22:48:00,39.0,20.5,30.31,North,3,3.1,4.0,47,0.00,CLR,,0.00,WeatherDisplay:10.37,2013-12-18 04:48:00,
2013-12-17 22:53:00,39.0,20.5,30.31,North,9,2.7,3.5,47,0.00,CLR,,0.00,WeatherDisplay:10.37,2013-12-18 04:53:00,
2013-12-17 22:58:00,39.2,20.6,30.31,North,7,3.1,3.6,47,0.00,CLR,,0.00,WeatherDisplay:10.37,2013-12-18 04:58:00,
2013-12-17 23:01:00,39.2,20.6,30.31,North,8,3.6,5.8,47,0.00,CLR,,0.00,WeatherDisplay:10.37,2013-12-18 05:01:00,
2013-12-17 23:02:00,39.2,20.6,30.31,North,0,4.0,5.8,47,0.00,CLR,,0.00,WeatherDisplay:10.37,2013-12-18 05:02:00,
2013-12-17 23:03:00,39.2,20.6,30.31,North,357,3.1,3.5,47,0.00,CLR,,0.00,WeatherDisplay:10.37,2013-12-18 05:03:00,
2013-12-17 23:08:00,39.2,20.6,30.31,North,353,4.0,5.8,47,0.00,CLR,,0.00,WeatherDisplay:10.37,2013-12-18 05:08:00,
2013-12-17 23:13:00,38.8,20.3,30.31,North,2,2.2,3.5,47,0.00,CLR,,0.00,WeatherDisplay:10.37,2013-12-18 05:13:00,
2013-12-17 23:18:00,38.7,20.1,30.28,NNE,12,2.7,3.5,47,0.00,CLR,,0.00,WeatherDisplay:10.37,2013-12-18 05:18:00,
2013-12-17 23:23:00,38.3,19.8,30.28,North,5,2.7,3.5,47,0.00,CLR,,0.00,WeatherDisplay:10.37,2013-12-18 05:23:00,
2013-12-17 23:28:00,38.3,19.8,30.28,North,10,2.7,3.5,47,0.00,CLR,,0.00,WeatherDisplay:10.37,2013-12-18 05:28:00,
2013-12-17 23:33:00,38.3,19.8,30.28,North,11,2.2,3.5,47,0.00,CLR,,0.00,WeatherDisplay:10.37,2013-12-18 05:33:00,
2013-12-17 23:38:00,38.3,19.8,30.28,North,8,4.5,5.8,47,0.00,CLR,,0.00,WeatherDisplay:10.37,2013-12-18 05:38:00,
2013-12-17 23:43:00,38.5,20.0,30.28,NNE,21,3.1,3.5,47,0.00,CLR,,0.00,WeatherDisplay:10.37,2013-12-18 05:43:00,
2013-12-17 23:48:00,38.5,20.0,30.31,NNE,18,2.7,3.5,47,0.00,CLR,,0.00,WeatherDisplay:10.37,2013-12-18 05:48:00,
2013-12-17 23:53:00,38.3,19.8,30.31,NNE,15,0.0,4.6,47,0.00,CLR,,0.00,WeatherDisplay:10.37,2013-12-18 05:53:00,
2013-12-17 23:58:00,38.1,19.6,30.31,NNE,18,0.0,2.3,47,0.00,CLR,,0.00,WeatherDisplay:10.37,2013-12-18 05:58:00,